createdAt,value
2022-08-02T00:01:01.846Z,20.36
2022-08-02T00:03:30.857Z,20.40
2022-08-02T00:05:59.297Z,20.35
2022-08-02T00:08:27.651Z,20.19
2022-08-02T00:10:57.307Z,19.99
2022-08-02T00:13:25.646Z,20.00
2022-08-02T00:15:53.938Z,19.97
2022-08-02T00:18:22.359Z,20.05
2022-08-02T00:20:50.864Z,20.25
2022-08-02T00:23:19.347Z,20.35
2022-08-02T00:25:54.792Z,20.29
2022-08-02T00:28:27.916Z,19.97
2022-08-02T00:30:57.963Z,20.28
2022-08-02T00:34:26.779Z,20.40
2022-08-02T00:36:14.990Z,20.36
2022-08-02T00:38:43.357Z,20.19
2022-08-02T00:41:18.178Z,20.09
2022-08-02T00:43:50.403Z,19.95
2022-08-02T00:46:19.972Z,19.94
2022-08-02T00:48:48.673Z,19.91
2022-08-02T00:51:18.710Z,19.72
2022-08-02T00:53:46.939Z,19.67
2022-08-02T00:56:15.239Z,19.57
2022-08-02T00:58:43.483Z,19.26
2022-08-02T01:01:13.253Z,19.31
2022-08-02T01:03:41.679Z,19.21
2022-08-02T01:06:11.663Z,19.21
2022-08-02T01:08:40.426Z,19.14
2022-08-02T01:11:09.378Z,19.10
2022-08-02T01:13:38.193Z,18.99
2022-08-02T01:16:17.676Z,19.03
2022-08-02T01:18:52.538Z,18.82
2022-08-02T01:22:15.499Z,19.00
2022-08-02T01:25:16.631Z,18.92
2022-08-02T01:28:21.147Z,18.88
2022-08-02T01:30:54.755Z,18.95
2022-08-02T01:33:26.270Z,19.00
2022-08-02T01:35:57.266Z,18.91
2022-08-02T01:38:32.453Z,18.93
2022-08-02T01:41:03.447Z,19.08
2022-08-02T01:43:37.031Z,19.12
2022-08-02T01:46:06.627Z,18.89
2022-08-02T01:48:36.467Z,19.09
2022-08-02T01:51:06.230Z,19.12
2022-08-02T01:53:36.508Z,19.19
2022-08-02T01:56:06.691Z,19.23
2022-08-02T01:58:39.570Z,19.30
2022-08-02T02:01:14.433Z,19.36
2022-08-02T02:03:44.288Z,19.23
2022-08-02T02:06:13.555Z,19.19
2022-08-02T02:08:44.916Z,19.25
2022-08-02T02:12:12.170Z,19.33
2022-08-02T02:14:05.498Z,19.28
2022-08-02T02:16:35.864Z,19.24
2022-08-02T02:19:07.166Z,19.34
2022-08-02T02:21:35.526Z,19.63
2022-08-02T02:24:11.585Z,19.71
2022-08-02T02:26:44.277Z,19.30
2022-08-02T02:29:23.435Z,19.24
2022-08-02T02:31:54.525Z,19.08
2022-08-02T02:34:29.807Z,19.02
2022-08-02T02:37:02.707Z,18.25
2022-08-02T02:39:33.365Z,18.50
2022-08-02T02:42:03.966Z,18.73
2022-08-02T02:44:34.642Z,18.65
2022-08-02T02:47:03.282Z,18.67
2022-08-02T02:49:34.366Z,18.77
2022-08-02T02:52:04.948Z,18.56
2022-08-02T02:54:35.322Z,18.79
2022-08-02T02:57:05.830Z,18.86
2022-08-02T02:59:43.044Z,18.89
2022-08-02T03:02:19.868Z,18.90
2022-08-02T03:04:56.356Z,18.96
2022-08-02T03:07:27.278Z,18.96
2022-08-02T03:09:55.669Z,19.11
2022-08-02T03:12:31.441Z,19.20
2022-08-02T03:15:05.879Z,19.25
2022-08-02T03:17:42.550Z,19.34
2022-08-02T03:20:15.384Z,19.29
2022-08-02T03:22:44.923Z,19.47
2022-08-02T03:25:15.302Z,19.49
2022-08-02T03:27:43.753Z,19.37
2022-08-02T03:30:15.370Z,19.34
2022-08-02T03:32:48.549Z,19.25
2022-08-02T03:35:23.893Z,19.32
2022-08-02T03:37:55.437Z,19.25
2022-08-02T03:40:24.269Z,19.29
2022-08-02T03:42:52.711Z,19.27
2022-08-02T03:45:22.878Z,19.15
2022-08-02T03:47:51.623Z,18.91
2022-08-02T03:50:22.865Z,18.78
2022-08-02T03:52:52.033Z,18.59
2022-08-02T03:55:20.373Z,18.27
2022-08-02T03:57:49.219Z,18.26
2022-08-02T04:00:23.542Z,18.19
2022-08-02T04:02:52.387Z,18.25
2022-08-02T04:05:21.344Z,18.35
2022-08-02T04:08:33.892Z,18.43
2022-08-02T04:10:53.991Z,18.57
2022-08-02T04:13:24.847Z,18.64
2022-08-02T04:16:02.173Z,18.86
2022-08-02T04:18:38.224Z,18.92
2022-08-02T04:21:09.078Z,18.99
2022-08-02T04:23:39.477Z,18.86
2022-08-02T04:26:08.657Z,18.60
2022-08-02T04:28:40.184Z,18.26
2022-08-02T04:31:10.348Z,18.16
2022-08-02T04:33:39.212Z,18.16
2022-08-02T04:36:08.760Z,18.22
2022-08-02T04:38:37.041Z,18.27
2022-08-02T04:41:05.298Z,18.25
2022-08-02T04:43:33.635Z,18.08
2022-08-02T04:46:03.245Z,18.08
2022-08-02T04:48:33.065Z,17.99
2022-08-02T04:51:01.364Z,17.94
2022-08-02T04:53:29.690Z,18.01
2022-08-02T04:55:57.976Z,18.07
2022-08-02T04:58:41.767Z,18.20
2022-08-02T05:01:10.087Z,18.38
2022-08-02T05:03:39.841Z,18.46
2022-08-02T05:06:19.430Z,18.51
2022-08-02T05:08:52.733Z,18.41
2022-08-02T05:11:21.859Z,18.47
2022-08-02T05:13:58.678Z,18.64
2022-08-02T05:16:31.373Z,18.78
2022-08-02T05:19:02.714Z,18.75
2022-08-02T05:21:31.870Z,19.15
2022-08-02T05:24:00.350Z,19.33
2022-08-02T05:26:28.611Z,19.42
2022-08-02T05:28:56.912Z,19.62
2022-08-02T05:31:25.314Z,19.65
2022-08-02T05:33:53.589Z,19.70
2022-08-02T05:36:23.407Z,19.50
2022-08-02T05:38:52.879Z,19.57
2022-08-02T05:41:28.099Z,19.79
2022-08-02T05:43:56.437Z,19.91
2022-08-02T05:46:25.092Z,20.28
2022-08-02T05:48:53.483Z,20.47
2022-08-02T05:51:27.771Z,20.62
2022-08-02T05:54:09.859Z,20.82
2022-08-02T05:56:47.620Z,21.00
2022-08-02T05:59:34.906Z,21.12
2022-08-02T06:02:06.377Z,21.28
2022-08-02T06:04:50.258Z,21.46
2022-08-02T06:07:20.983Z,21.56
2022-08-02T06:09:50.871Z,21.65
2022-08-02T06:12:20.278Z,21.72
2022-08-02T06:14:54.396Z,21.87
2022-08-02T06:17:24.152Z,21.97
2022-08-02T06:19:55.145Z,22.10
2022-08-02T06:22:32.033Z,22.21
2022-08-02T06:25:11.524Z,22.30
2022-08-02T06:27:56.338Z,22.35
2022-08-02T06:30:24.871Z,22.45
2022-08-02T06:32:54.175Z,22.60
2022-08-02T06:35:23.114Z,22.70
2022-08-02T06:37:59.053Z,22.81
2022-08-02T06:40:32.230Z,22.84
2022-08-02T06:43:13.093Z,22.93
2022-08-02T06:45:42.171Z,22.99
2022-08-02T06:48:11.335Z,23.08
2022-08-02T06:50:41.886Z,23.17
2022-08-02T06:53:12.136Z,23.32
2022-08-02T06:55:43.454Z,23.38
2022-08-02T06:58:13.612Z,23.42
2022-08-02T07:00:43.683Z,23.44
2022-08-02T07:03:12.217Z,23.51
2022-08-02T07:05:41.506Z,23.59
2022-08-02T07:08:11.190Z,23.70
2022-08-02T07:10:39.487Z,23.79
2022-08-02T07:13:07.775Z,23.91
2022-08-02T07:15:36.115Z,24.02
2022-08-02T07:18:05.141Z,24.12
2022-08-02T07:20:34.022Z,24.24
2022-08-02T07:23:02.374Z,24.06
2022-08-02T07:26:03.138Z,24.19
2022-08-02T07:28:24.235Z,24.28
2022-08-02T07:30:53.304Z,24.26
2022-08-02T07:33:39.027Z,24.40
2022-08-02T07:36:17.044Z,24.26
2022-08-02T07:38:51.187Z,24.59
2022-08-02T07:41:22.835Z,24.66
2022-08-02T07:43:51.432Z,24.79
2022-08-02T07:46:19.657Z,24.68
2022-08-02T07:48:49.718Z,24.72
2022-08-02T07:51:18.221Z,24.79
2022-08-02T07:53:51.042Z,24.78
2022-08-02T07:56:20.440Z,24.74
2022-08-02T07:58:50.054Z,24.85
2022-08-02T08:01:18.469Z,24.90
2022-08-02T08:03:47.178Z,24.80
2022-08-02T08:06:15.996Z,25.07
2022-08-02T08:08:44.623Z,25.14
2022-08-02T08:11:12.980Z,25.19
2022-08-02T08:13:41.286Z,25.18
2022-08-02T08:16:11.183Z,25.20
2022-08-02T08:18:39.613Z,25.09
2022-08-02T08:21:07.925Z,25.12
2022-08-02T08:23:36.310Z,25.18
2022-08-02T08:26:05.182Z,25.31
2022-08-02T08:28:33.499Z,25.46
2022-08-02T08:31:01.900Z,25.47
2022-08-02T08:33:31.610Z,25.44
2022-08-02T08:35:59.940Z,25.46
2022-08-02T08:38:31.181Z,25.53
2022-08-02T08:40:59.585Z,25.59
2022-08-02T08:43:27.838Z,25.73
2022-08-02T08:45:56.871Z,25.53
2022-08-02T08:48:30.810Z,25.04
2022-08-02T08:51:09.489Z,25.66
2022-08-02T08:53:43.833Z,25.41
2022-08-02T08:56:16.322Z,25.55
2022-08-02T08:58:47.462Z,25.46
2022-08-02T09:01:17.196Z,25.60
2022-08-02T09:03:46.334Z,25.67
2022-08-02T09:06:16.653Z,25.70
2022-08-02T09:08:45.615Z,25.74
2022-08-02T09:11:16.111Z,25.80
2022-08-02T09:13:50.912Z,25.83
2022-08-02T09:16:31.211Z,25.84
2022-08-02T09:19:01.619Z,25.96
2022-08-02T09:21:39.269Z,26.09
2022-08-02T09:24:18.895Z,26.03
2022-08-02T09:26:48.242Z,25.96
2022-08-02T09:29:18.339Z,25.80
2022-08-02T09:31:50.229Z,25.75
2022-08-02T09:34:20.139Z,25.77
2022-08-02T09:36:54.673Z,25.73
2022-08-02T09:39:26.406Z,25.72
2022-08-02T09:42:10.506Z,25.61
2022-08-02T09:44:39.167Z,25.75
2022-08-02T09:47:16.766Z,25.57
2022-08-02T09:49:52.644Z,25.82
2022-08-02T09:52:36.984Z,25.92
2022-08-02T09:55:13.557Z,25.94
2022-08-02T09:57:41.977Z,26.07
2022-08-02T10:00:14.937Z,26.06
2022-08-02T10:03:07.749Z,26.12
2022-08-02T10:05:55.715Z,26.35
2022-08-02T10:08:27.054Z,26.38
2022-08-02T10:11:01.410Z,26.28
2022-08-02T10:13:32.471Z,26.11
2022-08-02T10:16:02.481Z,26.35
2022-08-02T10:18:40.316Z,26.51
2022-08-02T10:21:15.492Z,26.59
2022-08-02T10:23:47.803Z,26.71
2022-08-02T10:26:18.792Z,26.63
2022-08-02T10:28:50.380Z,26.70
2022-08-02T10:31:25.245Z,26.88
2022-08-02T10:33:55.699Z,26.86
2022-08-02T10:36:27.305Z,26.89
2022-08-02T10:38:59.579Z,26.93
2022-08-02T10:41:49.471Z,26.84
2022-08-02T10:44:29.356Z,26.90
2022-08-02T10:47:25.187Z,26.97
2022-08-02T10:49:55.737Z,27.21
2022-08-02T10:52:24.811Z,27.32
2022-08-02T10:54:58.975Z,27.23
2022-08-02T10:57:29.448Z,27.21
2022-08-02T10:59:59.306Z,27.35
2022-08-02T11:02:43.788Z,27.42
2022-08-02T11:05:17.999Z,27.41
2022-08-02T11:07:49.377Z,27.42
2022-08-02T11:10:46.580Z,27.33
2022-08-02T11:13:16.859Z,27.31
2022-08-02T11:15:59.109Z,27.32
2022-08-02T11:19:06.576Z,27.19
2022-08-02T11:21:36.292Z,27.20
2022-08-02T11:24:29.115Z,27.27
2022-08-02T11:27:00.058Z,26.82
2022-08-02T11:29:38.522Z,27.34
2022-08-02T11:32:08.920Z,27.47
2022-08-02T11:34:38.501Z,27.51
2022-08-02T11:37:07.681Z,27.02
2022-08-02T11:39:36.128Z,27.59
2022-08-02T11:42:06.115Z,27.64
2022-08-02T11:44:42.594Z,27.63
2022-08-02T11:47:11.032Z,27.59
2022-08-02T11:49:39.566Z,27.81
2022-08-02T11:52:11.249Z,27.91
2022-08-02T11:54:42.660Z,27.99
2022-08-02T11:57:20.206Z,28.05
2022-08-02T11:59:50.950Z,27.85
2022-08-02T12:02:21.353Z,27.89
2022-08-02T12:04:58.959Z,27.83
2022-08-02T12:07:34.405Z,27.93
2022-08-02T12:10:07.514Z,27.80
2022-08-02T12:12:50.060Z,27.90
2022-08-02T12:15:35.154Z,27.88
2022-08-02T12:18:22.492Z,27.47
2022-08-02T12:20:50.787Z,28.00
2022-08-02T12:23:20.278Z,27.99
2022-08-02T12:26:01.233Z,27.92
2022-08-02T12:28:35.614Z,27.86
2022-08-02T12:31:04.071Z,27.91
2022-08-02T12:33:49.798Z,27.92
2022-08-02T12:36:19.549Z,27.91
2022-08-02T12:38:54.498Z,27.72
2022-08-02T12:41:31.148Z,27.92
2022-08-02T12:44:02.514Z,28.09
2022-08-02T12:46:31.874Z,28.14
2022-08-02T12:49:18.906Z,28.12
2022-08-02T12:51:51.272Z,28.01
2022-08-02T12:54:31.647Z,28.13
2022-08-02T12:57:11.790Z,28.22
2022-08-02T12:59:44.526Z,28.20
2022-08-02T13:02:16.779Z,28.19
2022-08-02T13:04:49.817Z,28.05
2022-08-02T13:07:19.076Z,27.93
2022-08-02T13:09:48.313Z,28.10
2022-08-02T13:12:17.407Z,28.07
2022-08-02T13:14:47.608Z,27.97
2022-08-02T13:17:15.948Z,27.93
2022-08-02T13:19:44.279Z,28.02
2022-08-02T13:22:13.265Z,28.02
2022-08-02T13:24:56.047Z,27.94
2022-08-02T13:27:26.857Z,27.78
2022-08-02T13:29:57.974Z,28.08
2022-08-02T13:32:27.963Z,27.99
2022-08-02T13:34:56.965Z,28.07
2022-08-02T13:37:26.029Z,27.98
2022-08-02T13:40:20.031Z,28.04
2022-08-02T13:42:42.780Z,28.07
2022-08-02T13:45:14.464Z,28.05
2022-08-02T13:48:04.090Z,28.14
2022-08-02T13:50:33.218Z,28.17
2022-08-02T13:53:01.529Z,28.19
2022-08-02T13:55:30.517Z,28.12
2022-08-02T13:57:59.235Z,28.20
2022-08-02T14:00:35.429Z,28.21
2022-08-02T14:03:06.978Z,28.25
2022-08-02T14:05:48.100Z,28.27
2022-08-02T14:08:18.402Z,28.12
2022-08-02T14:10:47.975Z,28.24
2022-08-02T14:13:16.565Z,28.19
2022-08-02T14:15:46.685Z,28.26
2022-08-02T14:18:15.786Z,28.36
2022-08-02T14:20:45.121Z,28.43
2022-08-02T14:23:13.660Z,28.34
2022-08-02T14:25:42.205Z,28.42
2022-08-02T14:28:10.542Z,28.44
2022-08-02T14:30:38.891Z,28.53
2022-08-02T14:33:08.872Z,28.48
2022-08-02T14:35:37.215Z,28.56
2022-08-02T14:38:05.506Z,28.52
2022-08-02T14:40:34.050Z,28.48
2022-08-02T14:43:03.135Z,28.53
2022-08-02T14:45:36.766Z,28.57
2022-08-02T14:48:12.336Z,28.57
2022-08-02T14:50:40.779Z,28.60
2022-08-02T14:53:12.817Z,28.49
2022-08-02T14:55:42.903Z,28.42
2022-08-02T14:58:11.675Z,28.36
2022-08-02T15:00:41.498Z,28.44
2022-08-02T15:03:12.340Z,28.21
2022-08-02T15:05:40.558Z,28.30
2022-08-02T15:08:08.900Z,28.19
2022-08-02T15:10:37.345Z,28.14
2022-08-02T15:13:06.064Z,28.11
2022-08-02T15:15:43.631Z,28.10
2022-08-02T15:18:14.416Z,28.05
2022-08-02T15:20:51.506Z,28.01
2022-08-02T15:23:37.418Z,27.89
2022-08-02T15:26:06.514Z,27.89
2022-08-02T15:28:35.451Z,27.90
2022-08-02T15:31:03.916Z,27.91
2022-08-02T15:33:33.614Z,27.84
2022-08-02T15:36:02.003Z,27.65
2022-08-02T15:38:30.380Z,27.62
2022-08-02T15:40:58.694Z,27.59
2022-08-02T15:43:27.018Z,27.45
2022-08-02T15:45:55.366Z,27.48
2022-08-02T15:48:23.782Z,27.43
2022-08-02T15:50:53.419Z,27.36
2022-08-02T15:53:21.681Z,27.30
2022-08-02T15:56:04.071Z,27.26
2022-08-02T15:58:42.538Z,27.21
2022-08-02T16:01:13.342Z,27.16
2022-08-02T16:03:41.676Z,27.23
2022-08-02T16:06:12.038Z,27.27
2022-08-02T16:08:45.446Z,27.03
2022-08-02T16:11:22.829Z,27.21
2022-08-02T16:13:53.130Z,27.14
2022-08-02T16:16:23.003Z,27.07
2022-08-02T16:18:51.587Z,26.97
2022-08-02T16:21:22.821Z,26.90
2022-08-02T16:24:01.478Z,26.77
2022-08-02T16:26:31.942Z,26.82
2022-08-02T16:29:01.515Z,26.83
2022-08-02T16:31:30.086Z,26.73
2022-08-02T16:33:58.573Z,26.81
2022-08-02T16:36:28.719Z,26.62
2022-08-02T16:38:57.788Z,26.59
2022-08-02T16:41:51.502Z,26.56
2022-08-02T16:44:15.522Z,26.51
2022-08-02T16:46:45.780Z,26.59
2022-08-02T16:52:04.073Z,26.64
2022-08-02T16:54:32.624Z,26.70
2022-08-02T16:57:03.274Z,26.64
2022-08-02T16:59:41.842Z,26.45
2022-08-02T17:05:00.505Z,26.61
2022-08-02T17:08:16.266Z,26.64
2022-08-02T17:10:18.976Z,26.74
2022-08-02T17:12:51.202Z,26.79
2022-08-02T17:16:01.361Z,26.70
2022-08-02T17:18:08.789Z,26.59
2022-08-02T17:20:37.621Z,26.60
2022-08-02T17:23:07.405Z,26.55
2022-08-02T17:25:41.793Z,26.43
2022-08-02T17:28:11.220Z,26.41
2022-08-02T17:30:39.714Z,26.31
2022-08-02T17:33:07.979Z,26.36
2022-08-02T17:35:43.379Z,26.29
2022-08-02T17:38:26.334Z,26.24
2022-08-02T17:40:56.044Z,26.15
2022-08-02T17:43:29.191Z,26.15
2022-08-02T17:46:02.436Z,26.12
2022-08-02T17:48:54.880Z,26.16
2022-08-02T17:51:33.139Z,26.14
2022-08-02T17:54:14.671Z,26.11
2022-08-02T17:56:47.514Z,26.10
2022-08-02T17:59:20.348Z,26.08
2022-08-02T18:04:39.956Z,26.18
2022-08-02T18:07:10.182Z,26.18
2022-08-02T18:09:43.428Z,26.11
2022-08-02T18:12:14.505Z,26.18
2022-08-02T18:14:48.977Z,25.93
2022-08-02T18:17:19.071Z,25.99
2022-08-02T18:19:57.194Z,26.07
2022-08-02T18:22:29.636Z,26.02
2022-08-02T18:24:59.286Z,26.05
2022-08-02T18:27:27.613Z,26.04
2022-08-02T18:30:00.170Z,26.04
2022-08-02T18:33:55.209Z,26.00
2022-08-02T18:35:23.483Z,26.07
2022-08-02T18:37:57.203Z,26.04
2022-08-02T18:40:33.395Z,25.99
2022-08-02T18:43:03.512Z,26.01
2022-08-02T18:46:05.999Z,25.91
2022-08-02T18:48:23.725Z,25.90
2022-08-02T18:50:58.325Z,25.88
2022-08-02T18:53:39.286Z,25.94
2022-08-02T18:56:20.313Z,25.85
2022-08-02T18:58:54.503Z,25.85
2022-08-02T19:01:31.945Z,25.95
2022-08-02T19:04:02.008Z,25.92
2022-08-02T19:06:30.692Z,25.89
2022-08-02T19:09:05.821Z,25.87
2022-08-02T19:11:48.077Z,25.86
2022-08-02T19:14:27.223Z,25.86
2022-08-02T19:16:58.055Z,25.87
2022-08-02T19:19:29.067Z,25.77
2022-08-02T19:22:15.799Z,25.77
2022-08-02T19:24:47.180Z,25.75
2022-08-02T19:27:26.301Z,25.76
2022-08-02T19:30:02.806Z,25.73
2022-08-02T19:32:40.820Z,25.74
2022-08-02T19:35:30.723Z,25.77
2022-08-02T19:38:09.335Z,25.53
2022-08-02T19:40:38.990Z,25.75
2022-08-02T19:44:25.691Z,25.43
2022-08-02T19:45:58.606Z,25.69
2022-08-02T19:48:28.243Z,25.60
2022-08-02T19:51:00.892Z,25.38
2022-08-02T19:53:46.700Z,25.34
2022-08-02T19:56:24.759Z,25.41
2022-08-02T19:58:57.737Z,25.32
2022-08-02T20:01:36.703Z,25.31
2022-08-02T20:04:07.338Z,25.32
2022-08-02T20:06:45.403Z,24.96
2022-08-02T20:09:16.714Z,25.10
2022-08-02T20:11:45.816Z,25.03
2022-08-02T20:14:15.474Z,25.09
2022-08-02T20:16:45.992Z,24.91
2022-08-02T20:19:14.369Z,24.97
2022-08-02T20:21:52.957Z,24.95
2022-08-02T20:24:26.549Z,24.87
2022-08-02T20:26:59.495Z,24.87
2022-08-02T20:29:43.232Z,24.87
2022-08-02T20:32:21.556Z,24.91
2022-08-02T20:34:52.742Z,24.92
2022-08-02T20:37:56.114Z,24.99
2022-08-02T20:40:16.727Z,25.01
2022-08-02T20:42:47.749Z,24.99
2022-08-02T20:45:18.058Z,24.99
2022-08-02T20:47:50.826Z,25.00
2022-08-02T20:50:37.677Z,24.92
2022-08-02T20:53:06.961Z,24.92
2022-08-02T20:55:39.053Z,24.88
2022-08-02T20:58:11.849Z,24.88
2022-08-02T21:00:42.330Z,24.83
2022-08-02T21:03:11.724Z,24.79
2022-08-02T21:05:54.805Z,24.75
2022-08-02T21:08:24.660Z,24.72
2022-08-02T21:10:53.421Z,24.76
2022-08-02T21:13:26.128Z,24.71
2022-08-02T21:15:59.447Z,24.67
2022-08-02T21:18:40.083Z,24.69
2022-08-02T21:21:10.222Z,24.65
2022-08-02T21:23:44.918Z,24.61
2022-08-02T21:26:19.918Z,24.61
2022-08-02T21:28:54.262Z,24.61
2022-08-02T21:31:24.005Z,24.60
2022-08-02T21:33:59.380Z,24.63
2022-08-02T21:36:31.240Z,24.59
2022-08-02T21:39:04.940Z,24.48
2022-08-02T21:41:39.918Z,24.54
2022-08-02T21:44:16.340Z,24.51
2022-08-02T21:46:48.962Z,24.54
2022-08-02T21:49:18.896Z,24.54
2022-08-02T21:51:50.292Z,24.52
2022-08-02T21:57:15.443Z,24.49
2022-08-02T21:59:46.178Z,24.49
2022-08-02T22:02:17.998Z,24.44
2022-08-02T22:04:48.235Z,24.47
2022-08-02T22:07:24.329Z,24.41
2022-08-02T22:09:53.278Z,24.43
2022-08-02T22:12:26.466Z,24.43
2022-08-02T22:17:50.818Z,24.40
2022-08-02T22:20:22.418Z,24.39
2022-08-02T22:22:52.669Z,24.33
2022-08-02T22:25:36.022Z,24.29
2022-08-02T22:28:39.158Z,24.26
2022-08-02T22:30:57.121Z,24.28
2022-08-02T22:33:47.151Z,24.26
2022-08-02T22:36:29.161Z,24.28
2022-08-02T22:38:57.620Z,24.26
2022-08-02T22:41:25.951Z,24.22
2022-08-02T22:44:14.613Z,24.25
2022-08-02T22:46:43.290Z,24.23
2022-08-02T22:49:17.497Z,24.22
2022-08-02T22:52:01.270Z,24.17
2022-08-02T22:54:30.525Z,24.13
2022-08-02T22:57:00.240Z,24.15
2022-08-02T22:58:49.220Z,26.59
2022-08-02T22:58:51.071Z,26.60
2022-08-02T22:59:00.512Z,26.11
2022-08-02T22:59:03.802Z,24.45
2022-08-02T22:59:11.607Z,24.46
2022-08-02T22:59:39.064Z,24.09
2022-08-02T23:02:08.707Z,24.10
2022-08-02T23:04:38.781Z,24.07
2022-08-02T23:07:07.344Z,23.94
2022-08-02T23:09:35.659Z,23.98
2022-08-02T23:12:04.254Z,24.05
2022-08-02T23:14:32.643Z,24.02
2022-08-02T23:17:18.307Z,23.96
2022-08-02T23:19:53.903Z,24.03
2022-08-02T23:22:29.936Z,23.89
2022-08-02T23:25:01.616Z,24.01
2022-08-02T23:27:30.753Z,23.98
2022-08-02T23:29:59.598Z,23.96
2022-08-02T23:32:28.397Z,23.99
2022-08-02T23:34:59.377Z,23.93
2022-08-02T23:37:27.714Z,23.97
2022-08-02T23:39:55.971Z,23.92
2022-08-02T23:42:25.351Z,23.89
2022-08-02T23:44:54.023Z,23.88
2022-08-02T23:47:22.492Z,23.78
2022-08-02T23:49:51.342Z,23.81
2022-08-02T23:52:21.151Z,23.80
2022-08-02T23:54:49.436Z,23.75
2022-08-02T23:57:20.102Z,23.77
2022-08-02T23:59:51.611Z,23.76
